createdAt,value
2023-05-05T00:00:21.400Z,83.20
2023-05-05T00:03:26.397Z,80.15
2023-05-05T00:06:33.863Z,81.38
2023-05-05T00:09:38.282Z,83.00
2023-05-05T00:12:42.768Z,85.88
2023-05-05T00:15:49.301Z,88.11
2023-05-05T00:18:54.785Z,93.68
2023-05-05T00:21:59.311Z,100.00
2023-05-05T00:25:04.806Z,100.00
2023-05-05T00:28:09.366Z,100.00
2023-05-05T00:31:16.650Z,98.88
2023-05-05T00:34:21.267Z,99.15
2023-05-05T00:37:25.766Z,98.59
2023-05-05T00:40:30.868Z,98.67
2023-05-05T00:43:35.988Z,99.78
2023-05-05T00:46:42.370Z,96.40
2023-05-05T00:49:47.251Z,95.97
2023-05-05T00:52:55.431Z,81.49
2023-05-05T00:55:59.987Z,88.44
2023-05-05T00:59:04.519Z,93.18
2023-05-05T01:02:09.483Z,96.84
2023-05-05T01:05:16.195Z,99.12
2023-05-05T01:08:29.186Z,100.00
2023-05-05T01:11:56.330Z,100.00
2023-05-05T01:15:08.690Z,100.00
2023-05-05T01:18:38.840Z,86.23
2023-05-05T01:21:48.422Z,95.53
2023-05-05T01:25:08.698Z,82.89
2023-05-05T01:28:24.158Z,94.10
2023-05-05T01:31:44.963Z,100.00
2023-05-05T01:34:53.703Z,98.52
2023-05-05T01:38:13.331Z,99.49
2023-05-05T01:41:24.096Z,97.75
2023-05-05T01:44:29.738Z,96.10
2023-05-05T01:47:35.854Z,97.35
2023-05-05T01:50:42.408Z,91.69
2023-05-05T01:53:47.636Z,95.82
2023-05-05T01:56:54.156Z,97.03
2023-05-05T02:00:01.627Z,95.09
2023-05-05T02:03:07.986Z,100.00
2023-05-05T02:06:14.724Z,100.00
2023-05-05T02:09:23.674Z,100.00
2023-05-05T02:12:31.165Z,99.31
2023-05-05T02:15:38.227Z,100.00
2023-05-05T02:18:43.332Z,100.00
2023-05-05T02:21:47.820Z,100.00
2023-05-05T02:24:53.788Z,100.00
2023-05-05T02:28:02.601Z,100.00
2023-05-05T02:31:08.834Z,100.00
2023-05-05T02:34:21.114Z,100.00
2023-05-05T02:37:29.693Z,100.00
2023-05-05T02:40:38.438Z,100.00
2023-05-05T02:43:44.112Z,100.00
2023-05-05T02:46:49.317Z,100.00
2023-05-05T02:49:54.138Z,100.00
2023-05-05T02:53:00.608Z,100.00
2023-05-05T02:56:34.264Z,100.00
2023-05-05T02:59:56.530Z,100.00
2023-05-05T03:03:16.434Z,100.00
2023-05-05T03:06:27.147Z,100.00
2023-05-05T03:09:39.710Z,100.00
2023-05-05T03:12:56.598Z,100.00
2023-05-05T03:16:09.337Z,100.00
2023-05-05T03:19:18.315Z,100.00
2023-05-05T03:22:27.323Z,100.00
2023-05-05T03:25:46.637Z,100.00
2023-05-05T03:29:10.709Z,100.00
2023-05-05T03:32:17.326Z,100.00
2023-05-05T03:35:22.128Z,100.00
2023-05-05T03:38:26.908Z,100.00
2023-05-05T03:41:32.222Z,100.00
2023-05-05T03:44:37.530Z,100.00
2023-05-05T03:47:42.065Z,100.00
2023-05-05T03:50:48.630Z,100.00
2023-05-05T03:53:56.851Z,100.00
2023-05-05T03:57:02.412Z,100.00
2023-05-05T04:00:10.767Z,100.00
2023-05-05T04:03:18.818Z,100.00
2023-05-05T04:06:23.560Z,100.00
2023-05-05T04:09:30.026Z,100.00
2023-05-05T04:12:34.939Z,100.00
2023-05-05T04:15:44.617Z,100.00
2023-05-05T04:18:49.373Z,100.00
2023-05-05T04:21:54.135Z,100.00
2023-05-05T04:24:58.707Z,100.00
2023-05-05T04:28:05.151Z,100.00
2023-05-05T04:31:11.858Z,100.00
2023-05-05T04:34:19.300Z,100.00
2023-05-05T04:37:25.589Z,100.00
2023-05-05T04:40:30.614Z,100.00
2023-05-05T04:43:36.394Z,100.00
2023-05-05T04:46:41.466Z,100.00
2023-05-05T04:49:48.005Z,100.00
2023-05-05T04:52:52.860Z,100.00
2023-05-05T04:56:00.003Z,100.00
2023-05-05T04:59:04.837Z,100.00
2023-05-05T05:02:09.429Z,100.00
2023-05-05T05:05:14.055Z,100.00
2023-05-05T05:08:19.821Z,100.00
2023-05-05T05:11:24.409Z,100.00
2023-05-05T05:14:29.605Z,100.00
2023-05-05T05:17:34.209Z,100.00
2023-05-05T05:20:39.067Z,100.00
2023-05-05T05:23:43.649Z,100.00
2023-05-05T05:26:48.381Z,100.00
2023-05-05T05:29:52.946Z,100.00
2023-05-05T05:32:57.598Z,100.00
2023-05-05T05:36:02.208Z,100.00
2023-05-05T05:39:07.996Z,100.00
2023-05-05T05:42:12.523Z,100.00
2023-05-05T05:45:17.657Z,100.00
2023-05-05T05:48:24.822Z,100.00
2023-05-05T05:51:30.263Z,100.00
2023-05-05T05:54:35.609Z,100.00
2023-05-05T05:57:41.016Z,100.00
2023-05-05T06:00:48.947Z,98.86
2023-05-05T06:03:53.555Z,99.54
2023-05-05T06:06:58.710Z,100.00
2023-05-05T06:10:18.408Z,100.00
2023-05-05T06:13:28.503Z,91.35
2023-05-05T06:16:33.282Z,92.34
2023-05-05T06:19:43.219Z,84.97
2023-05-05T06:22:47.787Z,86.84
2023-05-05T06:25:54.072Z,79.64
2023-05-05T06:28:58.481Z,81.38
2023-05-05T06:32:03.075Z,74.48
2023-05-05T06:35:08.042Z,78.79
2023-05-05T06:38:13.196Z,76.20
2023-05-05T06:41:18.147Z,73.33
2023-05-05T06:44:22.560Z,73.70
2023-05-05T06:47:27.070Z,75.43
2023-05-05T06:50:31.558Z,72.73
2023-05-05T06:53:35.987Z,68.38
2023-05-05T06:56:40.922Z,69.06
2023-05-05T06:59:45.421Z,64.42
2023-05-05T07:02:53.111Z,61.89
2023-05-05T07:05:57.664Z,61.52
2023-05-05T07:09:03.458Z,68.52
2023-05-05T07:12:08.032Z,65.25
2023-05-05T07:15:26.028Z,56.77
2023-05-05T07:18:31.645Z,62.32
2023-05-05T07:21:36.660Z,55.24
2023-05-05T07:24:41.186Z,53.67
2023-05-05T07:27:45.859Z,53.40
2023-05-05T07:30:51.222Z,55.59
2023-05-05T07:33:57.154Z,52.32
2023-05-05T07:37:01.771Z,53.00
2023-05-05T07:40:07.151Z,50.91
2023-05-05T07:43:11.857Z,52.59
2023-05-05T07:46:16.409Z,51.93
2023-05-05T07:49:21.796Z,51.69
2023-05-05T07:52:43.598Z,51.11
2023-05-05T07:55:51.164Z,51.35
2023-05-05T07:58:55.966Z,48.51
2023-05-05T08:02:00.546Z,48.26
2023-05-05T08:05:05.439Z,48.31
2023-05-05T08:08:09.954Z,49.39
2023-05-05T08:11:15.682Z,47.73
2023-05-05T08:14:20.291Z,47.25
2023-05-05T08:17:26.873Z,47.93
2023-05-05T08:20:31.517Z,48.26
2023-05-05T08:23:36.365Z,47.59
2023-05-05T08:26:40.887Z,46.54
2023-05-05T08:29:45.484Z,46.41
2023-05-05T08:32:51.968Z,48.32
2023-05-05T08:35:56.524Z,47.88
2023-05-05T08:39:01.396Z,45.69
2023-05-05T08:42:06.233Z,46.25
2023-05-05T08:45:12.099Z,46.71
2023-05-05T08:48:20.651Z,46.02
2023-05-05T08:51:31.330Z,46.17
2023-05-05T08:54:42.105Z,45.01
2023-05-05T08:57:54.447Z,43.49
2023-05-05T09:01:01.377Z,44.05
2023-05-05T09:04:07.824Z,40.96
2023-05-05T09:07:12.326Z,41.18
2023-05-05T09:10:17.642Z,43.00
2023-05-05T09:13:22.160Z,41.62
2023-05-05T09:16:26.688Z,41.50
2023-05-05T09:19:31.210Z,43.79
2023-05-05T09:22:37.819Z,42.11
2023-05-05T09:25:47.951Z,43.33
2023-05-05T09:28:53.264Z,42.03
2023-05-05T09:32:11.023Z,41.51
2023-05-05T09:35:16.995Z,43.68
2023-05-05T09:38:23.440Z,40.54
2023-05-05T09:41:38.840Z,40.82
2023-05-05T09:44:43.301Z,40.89
2023-05-05T09:47:49.321Z,41.29
2023-05-05T09:50:55.069Z,40.66
2023-05-05T09:53:59.856Z,43.04
2023-05-05T09:57:04.391Z,41.39
2023-05-05T10:00:10.579Z,40.77
2023-05-05T10:03:16.034Z,39.48
2023-05-05T10:06:21.938Z,37.88
2023-05-05T10:09:27.311Z,41.04
2023-05-05T10:12:34.845Z,39.59
2023-05-05T10:15:42.406Z,38.84
2023-05-05T10:18:47.732Z,38.20
2023-05-05T10:21:53.991Z,36.76
2023-05-05T10:25:05.323Z,36.79
2023-05-05T10:28:11.131Z,35.98
2023-05-05T10:31:25.739Z,40.58
2023-05-05T10:34:40.642Z,35.45
2023-05-05T10:37:45.784Z,35.94
2023-05-05T10:40:50.511Z,34.26
2023-05-05T10:43:57.139Z,32.51
2023-05-05T10:47:02.068Z,35.11
2023-05-05T10:50:26.600Z,33.89
2023-05-05T10:53:41.163Z,35.09
2023-05-05T10:56:46.915Z,33.21
2023-05-05T10:59:51.849Z,33.39
2023-05-05T11:03:18.240Z,34.84
2023-05-05T11:06:23.000Z,33.91
2023-05-05T11:09:28.652Z,31.88
2023-05-05T11:12:53.841Z,31.35
2023-05-05T11:16:00.297Z,33.76
2023-05-05T11:19:06.025Z,31.98
2023-05-05T11:22:10.853Z,31.60
2023-05-05T11:25:37.210Z,32.78
2023-05-05T11:28:56.155Z,29.57
2023-05-05T11:32:14.345Z,29.91
2023-05-05T11:35:20.063Z,29.97
2023-05-05T11:38:36.382Z,29.08
2023-05-05T11:41:57.877Z,29.71
2023-05-05T11:45:02.496Z,28.54
2023-05-05T11:48:27.092Z,28.52
2023-05-05T11:51:32.041Z,30.29
2023-05-05T11:54:47.860Z,28.96
2023-05-05T11:57:52.847Z,28.60
2023-05-05T12:00:57.394Z,31.62
2023-05-05T12:04:02.170Z,29.81
2023-05-05T12:07:06.911Z,31.45
2023-05-05T12:10:11.540Z,28.63
2023-05-05T12:13:20.491Z,29.59
2023-05-05T12:16:25.165Z,29.20
2023-05-05T12:19:33.539Z,28.91
2023-05-05T12:22:38.595Z,30.71
2023-05-05T12:25:43.193Z,29.27
2023-05-05T12:28:47.817Z,29.76
2023-05-05T12:31:52.479Z,29.90
2023-05-05T12:35:00.648Z,30.89
2023-05-05T12:38:05.371Z,29.08
2023-05-05T12:41:09.982Z,29.76
2023-05-05T12:44:14.563Z,29.38
2023-05-05T12:47:32.816Z,28.60
2023-05-05T12:50:37.509Z,29.07
2023-05-05T12:53:42.375Z,29.50
2023-05-05T12:56:49.984Z,30.45
2023-05-05T12:59:54.800Z,27.88
2023-05-05T13:02:59.377Z,30.42
2023-05-05T13:06:20.294Z,26.28
2023-05-05T13:09:26.945Z,28.34
2023-05-05T13:12:31.411Z,28.01
2023-05-05T13:15:36.484Z,27.42
2023-05-05T13:18:48.531Z,28.73
2023-05-05T13:21:57.420Z,28.86
2023-05-05T13:25:02.104Z,29.85
2023-05-05T13:28:08.052Z,29.98
2023-05-05T13:31:12.564Z,31.43
2023-05-05T13:34:17.762Z,30.68
2023-05-05T13:37:22.408Z,30.75
2023-05-05T13:40:27.002Z,30.17
2023-05-05T13:43:31.586Z,28.99
2023-05-05T13:46:36.153Z,32.84
2023-05-05T13:49:40.655Z,30.29
2023-05-05T13:52:45.189Z,31.86
2023-05-05T13:55:49.995Z,28.36
2023-05-05T13:58:54.726Z,29.65
2023-05-05T14:02:00.906Z,28.52
2023-05-05T14:05:06.303Z,28.51
2023-05-05T14:08:10.980Z,29.52
2023-05-05T14:11:17.851Z,29.95
2023-05-05T14:14:22.730Z,31.46
2023-05-05T14:17:27.305Z,30.12
2023-05-05T14:20:32.853Z,29.31
2023-05-05T14:23:37.434Z,30.53
2023-05-05T14:26:42.062Z,27.79
2023-05-05T14:29:46.518Z,29.58
2023-05-05T14:32:51.137Z,30.49
2023-05-05T14:35:57.159Z,30.41
2023-05-05T14:39:01.662Z,31.38
2023-05-05T14:42:06.386Z,30.94
2023-05-05T14:45:11.251Z,28.02
2023-05-05T14:48:15.822Z,31.91
2023-05-05T14:51:21.849Z,28.59
2023-05-05T14:54:28.827Z,30.32
2023-05-05T14:57:33.724Z,32.16
2023-05-05T15:00:38.204Z,31.35
2023-05-05T15:03:42.787Z,29.67
2023-05-05T15:06:47.420Z,31.84
2023-05-05T15:09:51.970Z,32.28
2023-05-05T15:12:56.566Z,32.25
2023-05-05T15:16:01.360Z,30.62
2023-05-05T15:19:05.968Z,29.37
2023-05-05T15:22:10.717Z,29.19
2023-05-05T15:25:15.729Z,31.42
2023-05-05T15:28:20.221Z,31.80
2023-05-05T15:31:24.863Z,30.34
2023-05-05T15:34:29.338Z,30.78
2023-05-05T15:37:34.292Z,31.21
2023-05-05T15:40:38.818Z,33.10
2023-05-05T15:43:43.394Z,32.81
2023-05-05T15:46:50.359Z,32.55
2023-05-05T15:49:55.738Z,34.73
2023-05-05T15:53:00.544Z,34.57
2023-05-05T15:56:05.145Z,34.14
2023-05-05T15:59:09.658Z,33.21
2023-05-05T16:02:14.204Z,33.16
2023-05-05T16:05:22.129Z,34.20
2023-05-05T16:08:27.428Z,33.21
2023-05-05T16:11:32.055Z,36.90
2023-05-05T16:14:36.501Z,33.39
2023-05-05T16:17:42.947Z,34.41
2023-05-05T16:20:47.496Z,34.53
2023-05-05T16:23:51.990Z,33.90
2023-05-05T16:26:56.587Z,34.00
2023-05-05T16:30:01.139Z,33.15
2023-05-05T16:33:06.702Z,33.51
2023-05-05T16:36:12.250Z,34.75
2023-05-05T16:39:16.736Z,35.57
2023-05-05T16:42:21.325Z,35.66
2023-05-05T16:45:27.099Z,37.44
2023-05-05T16:48:31.750Z,37.15
2023-05-05T16:51:36.217Z,37.29
2023-05-05T16:54:41.538Z,37.95
2023-05-05T16:57:47.145Z,37.18
2023-05-05T17:00:52.499Z,35.53
2023-05-05T17:04:02.346Z,37.13
2023-05-05T17:07:06.966Z,36.73
2023-05-05T17:10:11.564Z,38.23
2023-05-05T17:13:16.249Z,37.62
2023-05-05T17:16:22.153Z,38.08
2023-05-05T17:19:26.889Z,38.21
2023-05-05T17:22:32.011Z,39.67
2023-05-05T17:25:36.539Z,38.96
2023-05-05T17:28:41.115Z,39.27
2023-05-05T17:31:46.673Z,40.16
2023-05-05T17:34:51.172Z,41.91
2023-05-05T17:37:55.971Z,41.17
2023-05-05T17:41:00.569Z,40.75
2023-05-05T17:44:05.118Z,40.62
2023-05-05T17:47:11.113Z,41.47
2023-05-05T17:50:15.845Z,42.26
2023-05-05T17:53:21.453Z,42.30
2023-05-05T17:56:26.164Z,41.02
2023-05-05T17:59:31.568Z,43.01
2023-05-05T18:02:37.041Z,43.01
2023-05-05T18:05:43.143Z,42.55
2023-05-05T18:08:47.694Z,41.50
2023-05-05T18:11:53.974Z,42.42
2023-05-05T18:14:58.560Z,43.93
2023-05-05T18:18:03.156Z,44.33
2023-05-05T18:21:11.818Z,44.72
2023-05-05T18:24:20.300Z,45.90
2023-05-05T18:27:26.958Z,46.28
2023-05-05T18:30:32.717Z,47.38
2023-05-05T18:33:37.347Z,45.01
2023-05-05T18:36:42.113Z,47.54
2023-05-05T18:39:46.640Z,47.70
2023-05-05T18:42:51.162Z,46.85
2023-05-05T18:45:55.705Z,47.51
2023-05-05T18:49:00.572Z,50.17
2023-05-05T18:52:05.279Z,52.68
2023-05-05T18:55:10.041Z,53.99
2023-05-05T18:58:16.802Z,57.50
2023-05-05T19:01:21.402Z,59.67
2023-05-05T19:04:31.333Z,55.34
2023-05-05T19:07:36.721Z,58.31
2023-05-05T19:10:41.752Z,55.98
2023-05-05T19:13:46.442Z,57.76
2023-05-05T19:16:51.287Z,63.13
2023-05-05T19:19:55.861Z,67.45
2023-05-05T19:23:03.735Z,65.93
2023-05-05T19:26:08.390Z,70.60
2023-05-05T19:29:12.783Z,72.04
2023-05-05T19:32:17.595Z,63.72
2023-05-05T19:35:22.276Z,68.36
2023-05-05T19:38:26.844Z,67.13
2023-05-05T19:41:31.555Z,67.79
2023-05-05T19:44:36.052Z,69.09
2023-05-05T19:47:40.634Z,68.60
2023-05-05T19:50:45.259Z,68.88
2023-05-05T19:53:50.715Z,69.02
2023-05-05T19:56:57.305Z,68.62
2023-05-05T20:00:03.392Z,68.13
2023-05-05T20:03:09.181Z,69.91
2023-05-05T20:06:13.777Z,69.80
2023-05-05T20:09:18.594Z,62.35
2023-05-05T20:12:23.519Z,69.05
2023-05-05T20:15:28.033Z,74.35
2023-05-05T20:18:32.892Z,71.42
2023-05-05T20:21:37.427Z,74.80
2023-05-05T20:24:42.003Z,80.10
2023-05-05T20:27:47.897Z,87.22
2023-05-05T20:30:52.550Z,85.33
2023-05-05T20:33:57.173Z,92.57
2023-05-05T20:37:01.606Z,92.47
2023-05-05T20:40:07.268Z,92.72
2023-05-05T20:43:12.035Z,88.11
2023-05-05T20:46:16.835Z,78.39
2023-05-05T20:49:23.084Z,82.69
2023-05-05T20:52:27.606Z,72.99
2023-05-05T20:55:32.501Z,80.05
2023-05-05T20:58:37.079Z,82.37
2023-05-05T21:01:42.760Z,84.56
2023-05-05T21:04:47.311Z,93.19
2023-05-05T21:07:54.073Z,92.83
2023-05-05T21:10:58.644Z,91.45
2023-05-05T21:14:06.016Z,86.55
2023-05-05T21:17:10.643Z,83.85
2023-05-05T21:20:16.348Z,87.13
2023-05-05T21:23:20.823Z,84.54
2023-05-05T21:26:25.357Z,91.83
2023-05-05T21:29:34.209Z,93.15
2023-05-05T21:32:39.931Z,89.64
2023-05-05T21:35:44.548Z,100.00
2023-05-05T21:38:49.434Z,100.00
2023-05-05T21:41:54.205Z,100.00
2023-05-05T21:44:58.728Z,100.00
2023-05-05T21:48:05.459Z,100.00
2023-05-05T21:51:10.034Z,100.00
2023-05-05T21:54:14.606Z,100.00
2023-05-05T21:57:19.097Z,100.00
2023-05-05T22:00:23.641Z,100.00
2023-05-05T22:03:28.313Z,100.00
2023-05-05T22:06:32.991Z,100.00
2023-05-05T22:09:37.404Z,100.00
2023-05-05T22:12:42.072Z,100.00
2023-05-05T22:15:47.567Z,100.00
2023-05-05T22:18:52.440Z,100.00
2023-05-05T22:21:58.512Z,100.00
2023-05-05T22:25:06.789Z,100.00
2023-05-05T22:28:11.594Z,100.00
2023-05-05T22:31:16.462Z,100.00
2023-05-05T22:34:21.812Z,100.00
2023-05-05T22:37:26.869Z,100.00
2023-05-05T22:40:31.464Z,100.00
2023-05-05T22:43:36.045Z,100.00
2023-05-05T22:46:40.942Z,100.00
2023-05-05T22:49:45.646Z,100.00
2023-05-05T22:52:50.145Z,100.00
2023-05-05T22:55:54.703Z,100.00
2023-05-05T22:58:59.589Z,100.00
2023-05-05T23:02:04.120Z,100.00
2023-05-05T23:05:09.255Z,100.00
2023-05-05T23:08:13.932Z,100.00
2023-05-05T23:11:18.451Z,100.00
2023-05-05T23:14:23.074Z,100.00
2023-05-05T23:17:27.593Z,100.00
2023-05-05T23:20:32.451Z,100.00
2023-05-05T23:23:36.924Z,100.00
2023-05-05T23:26:41.453Z,100.00
2023-05-05T23:29:46.022Z,100.00
2023-05-05T23:32:50.643Z,100.00
2023-05-05T23:35:55.179Z,100.00
2023-05-05T23:38:59.789Z,100.00
2023-05-05T23:42:04.297Z,100.00
2023-05-05T23:45:09.697Z,100.00
2023-05-05T23:48:14.582Z,100.00
2023-05-05T23:51:22.340Z,100.00
2023-05-05T23:54:26.831Z,100.00
2023-05-05T23:57:31.344Z,100.00
